createdAt,value
2018-08-31T00:02:05.271Z,64.38
2018-08-31T00:04:45.727Z,65.29
2018-08-31T00:07:31.314Z,65.15
2018-08-31T00:12:30.115Z,65.46
2018-08-31T00:15:00.542Z,66.70
2018-08-31T00:17:30.048Z,67.67
2018-08-31T00:19:59.372Z,65.90
2018-08-31T00:22:28.852Z,64.79
2018-08-31T00:27:11.324Z,64.69
2018-08-31T00:29:53.331Z,64.79
2018-08-31T00:34:04.150Z,65.85
2018-08-31T00:36:49.832Z,65.04
2018-08-31T00:42:41.678Z,65.54
2018-08-31T00:45:35.663Z,68.59
2018-08-31T00:48:05.438Z,69.05
2018-08-31T00:50:34.974Z,68.73
2018-08-31T00:53:04.795Z,67.89
2018-08-31T00:55:34.597Z,67.18
2018-08-31T00:58:03.889Z,67.21
2018-08-31T01:00:33.195Z,68.10
2018-08-31T01:03:02.904Z,69.85
2018-08-31T01:05:32.409Z,69.11
2018-08-31T01:08:01.914Z,68.37
2018-08-31T01:10:31.197Z,67.45
2018-08-31T01:13:00.513Z,66.17
2018-08-31T01:15:29.937Z,66.73
2018-08-31T01:17:59.214Z,68.35
2018-08-31T01:20:28.718Z,69.73
2018-08-31T01:22:58.222Z,69.02
2018-08-31T01:25:27.729Z,68.72
2018-08-31T01:27:57.002Z,69.14
2018-08-31T01:30:26.528Z,68.93
2018-08-31T01:32:56.034Z,68.24
2018-08-31T01:35:25.540Z,68.05
2018-08-31T01:37:54.944Z,67.80
2018-08-31T01:40:24.550Z,68.36
2018-08-31T01:42:54.053Z,68.14
2018-08-31T01:45:23.453Z,66.21
2018-08-31T01:47:52.959Z,66.30
2018-08-31T01:50:22.361Z,66.31
2018-08-31T01:52:51.892Z,67.09
2018-08-31T01:55:25.550Z,67.34
2018-08-31T01:57:55.071Z,67.34
2018-08-31T02:00:24.781Z,66.31
2018-08-31T02:02:54.284Z,66.74
2018-08-31T02:05:23.756Z,66.56
2018-08-31T02:07:53.273Z,65.68
2018-08-31T02:10:22.901Z,65.46
2018-08-31T02:12:52.478Z,66.13
2018-08-31T02:15:22.113Z,66.87
2018-08-31T02:17:51.412Z,66.85
2018-08-31T02:20:21.021Z,67.05
2018-08-31T02:22:50.324Z,67.64
2018-08-31T02:25:20.952Z,67.64
2018-08-31T02:27:50.559Z,67.30
2018-08-31T02:30:20.165Z,67.21
2018-08-31T02:32:49.979Z,67.46
2018-08-31T02:35:19.282Z,68.40
2018-08-31T02:37:48.780Z,68.68
2018-08-31T02:40:18.090Z,69.02
2018-08-31T02:42:47.586Z,68.21
2018-08-31T02:45:17.194Z,68.07
2018-08-31T02:47:47.214Z,68.27
2018-08-31T02:50:17.017Z,69.04
2018-08-31T02:52:46.783Z,69.19
2018-08-31T02:55:16.442Z,68.80
2018-08-31T02:57:45.787Z,68.25
2018-08-31T03:00:15.431Z,68.18
2018-08-31T03:02:44.847Z,67.89
2018-08-31T03:05:14.454Z,67.57
2018-08-31T03:07:43.866Z,66.48
2018-08-31T03:10:13.620Z,66.70
2018-08-31T03:12:42.970Z,67.07
2018-08-31T03:15:12.672Z,67.21
2018-08-31T03:17:42.069Z,66.14
2018-08-31T03:20:11.548Z,66.24
2018-08-31T03:22:41.091Z,65.40
2018-08-31T03:25:10.805Z,65.41
2018-08-31T03:27:40.174Z,65.77
2018-08-31T03:30:09.641Z,66.18
2018-08-31T03:32:39.002Z,66.66
2018-08-31T03:35:08.547Z,66.77
2018-08-31T03:37:38.447Z,67.17
2018-08-31T03:40:08.127Z,67.19
2018-08-31T03:42:37.940Z,66.92
2018-08-31T03:45:07.852Z,67.27
2018-08-31T03:47:37.333Z,67.47
2018-08-31T03:50:07.150Z,67.45
2018-08-31T03:52:36.670Z,67.83
2018-08-31T03:55:06.812Z,67.52
2018-08-31T03:57:36.505Z,67.01
2018-08-31T04:00:07.047Z,67.04
2018-08-31T04:02:36.639Z,67.07
2018-08-31T04:05:06.345Z,67.21
2018-08-31T04:07:35.952Z,67.66
2018-08-31T04:10:05.559Z,68.21
2018-08-31T04:12:35.165Z,68.45
2018-08-31T04:15:04.599Z,68.11
2018-08-31T04:17:33.963Z,67.68
2018-08-31T04:20:03.264Z,67.81
2018-08-31T04:22:32.730Z,68.06
2018-08-31T04:25:02.123Z,68.35
2018-08-31T04:27:31.471Z,68.29
2018-08-31T04:30:00.978Z,68.60
2018-08-31T04:32:30.584Z,68.61
2018-08-31T04:35:00.090Z,68.77
2018-08-31T04:37:29.491Z,68.83
2018-08-31T04:39:59.391Z,69.35
2018-08-31T04:42:28.807Z,69.34
2018-08-31T04:44:58.208Z,69.26
2018-08-31T04:47:28.714Z,69.10
2018-08-31T04:49:58.139Z,69.14
2018-08-31T04:52:27.398Z,69.18
2018-08-31T04:54:57.863Z,69.24
2018-08-31T04:57:27.266Z,69.01
2018-08-31T04:59:56.563Z,68.87
2018-08-31T05:02:25.938Z,69.00
2018-08-31T05:04:55.324Z,69.35
2018-08-31T05:07:24.619Z,69.19
2018-08-31T05:09:54.070Z,69.10
2018-08-31T05:12:23.382Z,69.25
2018-08-31T05:14:52.874Z,69.76
2018-08-31T05:17:22.131Z,71.17
2018-08-31T05:19:51.430Z,71.96
2018-08-31T05:22:20.903Z,71.96
2018-08-31T05:24:50.280Z,69.92
2018-08-31T05:27:19.781Z,69.05
2018-08-31T05:29:49.185Z,69.46
2018-08-31T05:32:18.690Z,69.28
2018-08-31T05:34:48.086Z,69.97
2018-08-31T05:37:17.659Z,70.15
2018-08-31T05:39:47.210Z,70.43
2018-08-31T05:42:16.663Z,70.96
2018-08-31T05:44:46.413Z,71.05
2018-08-31T05:47:15.842Z,71.38
2018-08-31T05:49:45.422Z,71.86
2018-08-31T05:52:14.925Z,72.76
2018-08-31T05:54:44.533Z,73.64
2018-08-31T05:57:13.831Z,73.28
2018-08-31T05:59:43.135Z,73.09
2018-08-31T06:02:12.624Z,72.65
2018-08-31T06:04:41.936Z,71.73
2018-08-31T06:07:11.338Z,70.73
2018-08-31T06:09:40.957Z,71.03
2018-08-31T06:12:10.362Z,71.39
2018-08-31T06:14:39.853Z,71.26
2018-08-31T06:17:09.356Z,71.30
2018-08-31T06:19:38.963Z,73.14
2018-08-31T06:22:08.447Z,73.05
2018-08-31T06:24:38.072Z,72.72
2018-08-31T06:27:07.549Z,73.43
2018-08-31T06:29:37.185Z,71.93
2018-08-31T06:32:06.790Z,72.16
2018-08-31T06:34:37.451Z,71.60
2018-08-31T06:37:07.075Z,72.36
2018-08-31T06:39:36.530Z,71.00
2018-08-31T06:42:05.900Z,70.39
2018-08-31T06:44:35.540Z,69.83
2018-08-31T06:47:05.060Z,69.04
2018-08-31T06:49:34.549Z,68.57
2018-08-31T06:52:04.056Z,67.95
2018-08-31T06:54:40.289Z,66.89
2018-08-31T06:57:09.921Z,66.26
2018-08-31T06:59:39.395Z,65.43
2018-08-31T07:02:08.931Z,65.05
2018-08-31T07:04:38.331Z,65.15
2018-08-31T07:07:07.709Z,65.97
2018-08-31T07:09:53.831Z,66.74
2018-08-31T07:12:23.485Z,65.38
2018-08-31T07:14:52.938Z,63.89
2018-08-31T07:17:22.338Z,63.84
2018-08-31T07:19:51.755Z,63.33
2018-08-31T07:22:21.201Z,64.44
2018-08-31T07:24:50.648Z,64.93
2018-08-31T07:27:19.927Z,63.19
2018-08-31T07:29:49.451Z,63.85
2018-08-31T07:32:18.887Z,64.22
2018-08-31T07:34:48.358Z,63.24
2018-08-31T07:37:17.862Z,63.25
2018-08-31T07:39:47.243Z,63.54
2018-08-31T07:42:16.701Z,64.86
2018-08-31T07:44:46.273Z,63.70
2018-08-31T07:47:15.504Z,63.78
2018-08-31T07:49:44.806Z,64.98
2018-08-31T07:52:14.274Z,62.92
2018-08-31T07:54:43.882Z,61.83
2018-08-31T07:57:13.385Z,61.90
2018-08-31T07:59:42.991Z,61.35
2018-08-31T08:02:12.289Z,60.84
2018-08-31T08:04:41.750Z,61.58
2018-08-31T08:07:11.198Z,61.38
2018-08-31T08:09:40.658Z,61.66
2018-08-31T08:12:10.106Z,59.14
2018-08-31T08:14:39.727Z,59.56
2018-08-31T08:17:09.317Z,58.86
2018-08-31T08:19:38.650Z,56.68
2018-08-31T08:22:08.019Z,57.28
2018-08-31T08:24:37.292Z,55.81
2018-08-31T08:27:06.591Z,56.21
2018-08-31T08:29:36.021Z,55.78
2018-08-31T08:32:05.533Z,54.47
2018-08-31T08:34:34.926Z,53.24
2018-08-31T08:37:04.175Z,53.20
2018-08-31T08:39:33.733Z,51.01
2018-08-31T08:42:03.015Z,51.86
2018-08-31T08:44:32.535Z,52.92
2018-08-31T08:47:02.813Z,52.12
2018-08-31T08:49:32.341Z,50.55
2018-08-31T08:52:01.763Z,51.60
2018-08-31T08:54:31.166Z,48.73
2018-08-31T08:57:00.391Z,47.21
2018-08-31T08:59:29.961Z,46.47
2018-08-31T09:01:59.373Z,45.36
2018-08-31T09:04:28.772Z,44.27
2018-08-31T09:06:58.070Z,44.42
2018-08-31T09:09:27.473Z,43.93
2018-08-31T09:11:56.775Z,43.52
2018-08-31T09:14:26.046Z,41.28
2018-08-31T09:16:55.520Z,42.00
2018-08-31T09:19:25.082Z,42.92
2018-08-31T09:21:54.487Z,43.43
2018-08-31T09:24:23.790Z,37.43
2018-08-31T09:26:53.111Z,38.47
2018-08-31T09:29:22.483Z,37.58
2018-08-31T09:31:51.782Z,38.92
2018-08-31T09:34:21.536Z,36.40
2018-08-31T09:36:51.053Z,36.24
2018-08-31T09:39:20.706Z,37.42
2018-08-31T09:41:51.131Z,35.63
2018-08-31T09:44:20.640Z,34.22
2018-08-31T09:46:50.038Z,33.51
2018-08-31T09:49:19.336Z,34.16
2018-08-31T09:51:48.842Z,32.47
2018-08-31T09:54:18.656Z,34.55
2018-08-31T09:56:48.093Z,34.64
2018-08-31T09:59:17.455Z,36.41
2018-08-31T10:01:46.794Z,37.32
2018-08-31T10:04:16.261Z,35.11
2018-08-31T10:06:45.850Z,35.26
2018-08-31T10:09:16.498Z,35.48
2018-08-31T10:11:45.955Z,35.30
2018-08-31T10:14:15.406Z,36.00
2018-08-31T10:16:44.678Z,35.92
2018-08-31T10:19:14.927Z,36.54
2018-08-31T10:21:44.430Z,37.08
2018-08-31T10:24:13.931Z,36.88
2018-08-31T10:26:43.478Z,37.64
2018-08-31T10:29:12.838Z,38.47
2018-08-31T10:31:42.121Z,39.11
2018-08-31T10:34:11.848Z,39.82
2018-08-31T10:36:41.239Z,39.14
2018-08-31T10:39:13.936Z,37.59
2018-08-31T10:41:43.329Z,37.23
2018-08-31T10:44:12.939Z,36.10
2018-08-31T10:46:42.389Z,36.56
2018-08-31T10:49:11.742Z,35.80
2018-08-31T10:51:41.298Z,36.70
2018-08-31T10:54:10.649Z,37.11
2018-08-31T10:56:40.101Z,37.76
2018-08-31T10:59:09.560Z,38.22
2018-08-31T11:01:39.009Z,38.45
2018-08-31T11:04:08.887Z,37.32
2018-08-31T11:06:38.994Z,34.78
2018-08-31T11:09:08.698Z,34.90
2018-08-31T11:11:38.158Z,35.38
2018-08-31T11:14:07.809Z,34.72
2018-08-31T11:16:37.153Z,35.60
2018-08-31T11:19:06.673Z,34.08
2018-08-31T11:21:36.117Z,33.78
2018-08-31T11:24:05.582Z,32.38
2018-08-31T11:26:35.023Z,31.93
2018-08-31T11:29:04.430Z,32.82
2018-08-31T11:31:33.829Z,29.63
2018-08-31T11:34:03.232Z,31.91
2018-08-31T11:36:32.737Z,32.41
2018-08-31T11:39:02.240Z,34.79
2018-08-31T11:41:31.743Z,36.62
2018-08-31T11:44:01.142Z,36.71
2018-08-31T11:46:30.606Z,36.45
2018-08-31T11:49:00.153Z,35.95
2018-08-31T11:51:29.658Z,37.77
2018-08-31T11:53:59.264Z,37.10
2018-08-31T11:56:29.177Z,36.25
2018-08-31T11:58:58.682Z,36.00
2018-08-31T12:01:28.168Z,36.42
2018-08-31T12:03:57.794Z,34.95
2018-08-31T12:06:27.298Z,34.55
2018-08-31T12:08:56.700Z,34.68
2018-08-31T12:11:25.979Z,35.10
2018-08-31T12:13:55.505Z,34.39
2018-08-31T12:16:24.762Z,35.09
2018-08-31T12:18:54.101Z,35.60
2018-08-31T12:21:23.609Z,34.71
2018-08-31T12:23:53.177Z,34.50
2018-08-31T12:26:22.823Z,35.24
2018-08-31T12:28:52.534Z,34.46
2018-08-31T12:31:22.105Z,34.46
2018-08-31T12:33:51.657Z,34.34
2018-08-31T12:36:21.450Z,33.76
2018-08-31T12:38:51.162Z,34.67
2018-08-31T12:41:20.563Z,35.67
2018-08-31T12:43:49.835Z,35.65
2018-08-31T12:46:19.263Z,35.23
2018-08-31T12:48:48.559Z,35.59
2018-08-31T12:51:18.034Z,35.24
2018-08-31T12:53:47.330Z,35.13
2018-08-31T12:56:16.769Z,34.47
2018-08-31T12:58:46.060Z,34.07
2018-08-31T13:01:15.650Z,35.24
2018-08-31T13:03:45.079Z,36.75
2018-08-31T13:06:14.376Z,35.74
2018-08-31T13:08:45.009Z,37.16
2018-08-31T13:11:14.568Z,38.00
2018-08-31T13:13:44.081Z,37.42
2018-08-31T13:16:13.832Z,38.02
2018-08-31T13:18:43.337Z,36.47
2018-08-31T13:21:12.845Z,36.29
2018-08-31T13:23:42.242Z,35.87
2018-08-31T13:26:11.591Z,34.34
2018-08-31T13:28:41.149Z,35.62
2018-08-31T13:31:10.485Z,35.97
2018-08-31T13:33:39.691Z,37.00
2018-08-31T13:36:09.071Z,36.95
2018-08-31T13:38:38.652Z,36.82
2018-08-31T13:41:08.138Z,36.25
2018-08-31T13:43:37.604Z,35.97
2018-08-31T13:46:07.268Z,36.35
2018-08-31T13:48:36.866Z,35.50
2018-08-31T13:51:06.188Z,34.84
2018-08-31T13:53:35.575Z,35.09
2018-08-31T13:56:05.183Z,34.79
2018-08-31T13:58:34.752Z,35.88
2018-08-31T14:01:04.398Z,35.33
2018-08-31T14:03:34.005Z,35.07
2018-08-31T14:06:03.451Z,34.77
2018-08-31T14:08:32.993Z,34.57
2018-08-31T14:11:02.459Z,34.46
2018-08-31T14:13:32.000Z,33.84
2018-08-31T14:16:01.526Z,33.70
2018-08-31T14:18:31.030Z,33.56
2018-08-31T14:21:00.594Z,33.18
2018-08-31T14:23:30.091Z,33.25
2018-08-31T14:25:59.746Z,33.10
2018-08-31T14:28:29.128Z,33.15
2018-08-31T14:30:58.857Z,33.16
2018-08-31T14:33:28.464Z,33.80
2018-08-31T14:35:57.968Z,34.84
2018-08-31T14:38:27.575Z,34.89
2018-08-31T14:40:56.979Z,34.81
2018-08-31T14:43:26.294Z,35.17
2018-08-31T14:45:56.094Z,34.84
2018-08-31T14:48:25.388Z,35.72
2018-08-31T14:50:55.329Z,35.67
2018-08-31T14:53:24.698Z,35.14
2018-08-31T14:55:54.318Z,35.22
2018-08-31T14:58:23.772Z,34.99
2018-08-31T15:00:54.454Z,35.51
2018-08-31T15:03:24.056Z,35.03
2018-08-31T15:05:53.556Z,34.62
2018-08-31T15:08:22.959Z,34.28
2018-08-31T15:10:52.469Z,34.58
2018-08-31T15:13:21.967Z,34.09
2018-08-31T15:15:51.436Z,35.07
2018-08-31T15:18:21.079Z,34.71
2018-08-31T15:20:50.365Z,35.01
2018-08-31T15:23:19.885Z,35.24
2018-08-31T15:25:49.492Z,34.29
2018-08-31T15:28:19.097Z,34.63
2018-08-31T15:30:48.602Z,33.74
2018-08-31T15:33:18.310Z,34.46
2018-08-31T15:35:47.769Z,33.89
2018-08-31T15:38:17.219Z,33.07
2018-08-31T15:40:46.730Z,32.83
2018-08-31T15:43:16.414Z,33.68
2018-08-31T15:45:45.730Z,33.76
2018-08-31T15:48:15.241Z,35.34
2018-08-31T15:50:44.637Z,34.30
2018-08-31T15:53:14.009Z,34.77
2018-08-31T15:55:43.276Z,34.37
2018-08-31T15:58:12.739Z,35.34
2018-08-31T16:00:42.232Z,35.30
2018-08-31T16:03:11.748Z,35.11
2018-08-31T16:05:41.135Z,35.59
2018-08-31T16:08:10.655Z,35.02
2018-08-31T16:10:40.056Z,34.73
2018-08-31T16:13:09.839Z,34.30
2018-08-31T16:15:39.380Z,36.30
2018-08-31T16:18:09.184Z,35.72
2018-08-31T16:20:38.790Z,35.33
2018-08-31T16:23:08.397Z,34.89
2018-08-31T16:25:37.684Z,34.61
2018-08-31T16:28:07.082Z,34.97
2018-08-31T16:30:36.604Z,34.85
2018-08-31T16:33:05.984Z,35.28
2018-08-31T16:35:35.510Z,35.48
2018-08-31T16:38:05.016Z,35.60
2018-08-31T16:40:34.518Z,34.47
2018-08-31T16:43:04.023Z,34.59
2018-08-31T16:45:33.343Z,34.61
2018-08-31T16:48:02.929Z,35.35
2018-08-31T16:50:32.329Z,35.55
2018-08-31T16:53:01.710Z,35.70
2018-08-31T16:55:31.455Z,36.27
2018-08-31T16:58:01.048Z,36.69
2018-08-31T17:00:30.553Z,36.64
2018-08-31T17:03:00.071Z,35.95
2018-08-31T17:05:29.734Z,35.56
2018-08-31T17:07:59.143Z,34.99
2018-08-31T17:10:28.666Z,35.38
2018-08-31T17:13:04.833Z,35.17
2018-08-31T17:15:34.235Z,36.34
2018-08-31T17:18:03.739Z,37.26
2018-08-31T17:20:33.141Z,37.07
2018-08-31T17:23:02.648Z,37.40
2018-08-31T17:25:32.052Z,37.58
2018-08-31T17:28:06.806Z,38.04
2018-08-31T17:30:36.176Z,38.05
2018-08-31T17:33:11.339Z,38.61
2018-08-31T17:35:45.903Z,38.50
2018-08-31T17:38:15.442Z,38.57
2018-08-31T17:40:44.685Z,38.90
2018-08-31T17:43:14.359Z,39.17
2018-08-31T17:45:43.852Z,38.86
2018-08-31T17:48:13.309Z,39.07
2018-08-31T17:50:42.615Z,39.32
2018-08-31T17:53:13.182Z,39.05
2018-08-31T17:55:42.632Z,38.40
2018-08-31T17:58:12.398Z,38.80
2018-08-31T18:00:42.004Z,38.96
2018-08-31T18:03:11.458Z,38.35
2018-08-31T18:05:40.973Z,38.40
2018-08-31T18:08:10.620Z,38.36
2018-08-31T18:10:43.215Z,38.47
2018-08-31T18:13:12.507Z,38.50
2018-08-31T18:15:42.072Z,38.68
2018-08-31T18:18:12.119Z,39.46
2018-08-31T18:20:41.521Z,40.07
2018-08-31T18:23:11.028Z,40.23
2018-08-31T18:25:40.660Z,40.93
2018-08-31T18:28:10.047Z,39.89
2018-08-31T18:30:39.538Z,39.69
2018-08-31T18:33:09.002Z,40.40
2018-08-31T18:35:38.311Z,40.46
2018-08-31T18:38:07.688Z,40.79
2018-08-31T18:40:37.126Z,40.86
2018-08-31T18:43:06.649Z,41.06
2018-08-31T18:45:36.257Z,41.00
2018-08-31T18:48:05.865Z,41.00
2018-08-31T18:50:35.265Z,40.92
2018-08-31T18:53:04.770Z,41.50
2018-08-31T18:55:34.275Z,41.87
2018-08-31T18:58:04.906Z,42.43
2018-08-31T19:00:34.512Z,42.29
2018-08-31T19:03:04.118Z,42.53
2018-08-31T19:05:34.838Z,42.00
2018-08-31T19:08:04.668Z,42.08
2018-08-31T19:10:34.385Z,42.54
2018-08-31T19:13:03.979Z,43.03
2018-08-31T19:15:34.984Z,43.02
2018-08-31T19:18:04.627Z,42.85
2018-08-31T19:20:34.265Z,43.22
2018-08-31T19:23:03.885Z,43.45
2018-08-31T19:25:34.392Z,43.60
2018-08-31T19:28:04.076Z,43.71
2018-08-31T19:30:33.888Z,43.92
2018-08-31T19:33:03.394Z,43.88
2018-08-31T19:35:33.103Z,44.09
2018-08-31T19:38:02.609Z,44.27
2018-08-31T19:40:32.213Z,44.26
2018-08-31T19:43:02.051Z,44.49
2018-08-31T19:45:31.323Z,44.81
2018-08-31T19:48:01.033Z,44.75
2018-08-31T19:50:30.442Z,45.08
2018-08-31T19:52:59.836Z,45.17
2018-08-31T19:55:29.525Z,45.19
2018-08-31T19:57:58.949Z,45.01
2018-08-31T20:00:30.631Z,45.47
2018-08-31T20:03:00.010Z,45.35
2018-08-31T20:05:29.507Z,45.30
2018-08-31T20:07:58.781Z,45.62
2018-08-31T20:10:28.092Z,45.76
2018-08-31T20:12:57.350Z,45.76
2018-08-31T20:15:27.115Z,45.83
2018-08-31T20:17:56.546Z,46.12
2018-08-31T20:20:26.228Z,46.56
2018-08-31T20:22:55.692Z,46.61
2018-08-31T20:25:25.136Z,47.11
2018-08-31T20:27:54.535Z,47.17
2018-08-31T20:30:23.943Z,47.32
2018-08-31T20:32:53.339Z,47.21
2018-08-31T20:35:22.651Z,46.95
2018-08-31T20:37:51.999Z,47.65
2018-08-31T20:40:21.441Z,47.21
2018-08-31T20:42:50.845Z,47.41
2018-08-31T20:45:20.150Z,47.22
2018-08-31T20:47:49.547Z,47.85
2018-08-31T20:50:18.845Z,47.31
2018-08-31T20:52:48.245Z,48.06
2018-08-31T20:55:17.853Z,47.88
2018-08-31T20:57:47.186Z,47.76
2018-08-31T21:00:16.657Z,47.93
2018-08-31T21:02:46.061Z,48.03
2018-08-31T21:05:15.358Z,49.18
2018-08-31T21:07:44.965Z,49.00
2018-08-31T21:10:14.295Z,49.05
2018-08-31T21:12:43.769Z,48.80
2018-08-31T21:15:13.179Z,49.02
2018-08-31T21:17:42.573Z,49.75
2018-08-31T21:20:12.079Z,49.67
2018-08-31T21:22:41.582Z,49.81
2018-08-31T21:25:11.066Z,50.07
2018-08-31T21:27:40.499Z,50.10
2018-08-31T21:30:09.994Z,50.01
2018-08-31T21:32:39.397Z,49.93
2018-08-31T21:35:09.002Z,50.33
2018-08-31T21:37:38.278Z,50.29
2018-08-31T21:40:08.286Z,51.04
2018-08-31T21:42:37.911Z,51.02
2018-08-31T21:45:08.453Z,51.48
2018-08-31T21:47:37.852Z,51.26
2018-08-31T21:50:07.357Z,51.59
2018-08-31T21:52:37.065Z,51.69
2018-08-31T21:55:06.634Z,52.39
2018-08-31T21:57:35.942Z,52.26
2018-08-31T22:00:08.295Z,52.30
2018-08-31T22:02:37.515Z,52.50
2018-08-31T22:05:07.096Z,52.56
2018-08-31T22:07:36.555Z,52.40
2018-08-31T22:10:05.888Z,52.43
2018-08-31T22:12:35.147Z,52.88
2018-08-31T22:15:04.757Z,53.18
2018-08-31T22:17:34.156Z,52.81
2018-08-31T22:20:03.660Z,52.98
2018-08-31T22:22:32.938Z,53.49
2018-08-31T22:25:02.566Z,53.68
2018-08-31T22:27:31.844Z,53.73
2018-08-31T22:30:01.179Z,53.46
2018-08-31T22:32:30.721Z,53.53
2018-08-31T22:35:00.071Z,53.51
2018-08-31T22:37:29.576Z,53.61
2018-08-31T22:39:59.197Z,52.79
2018-08-31T22:42:28.889Z,52.87
2018-08-31T22:44:58.396Z,53.45
2018-08-31T22:47:27.960Z,53.72
2018-08-31T22:49:57.426Z,53.92
2018-08-31T22:52:26.798Z,54.25
2018-08-31T22:54:56.423Z,54.83
2018-08-31T22:57:25.813Z,54.69
2018-08-31T22:59:55.295Z,54.22
2018-08-31T23:02:25.131Z,54.27
2018-08-31T23:04:54.777Z,54.24
2018-08-31T23:07:29.226Z,54.37
2018-08-31T23:09:58.534Z,54.46
2018-08-31T23:12:27.952Z,54.52
2018-08-31T23:14:57.563Z,55.21
2018-08-31T23:17:27.996Z,55.47
2018-08-31T23:19:58.554Z,55.39
2018-08-31T23:22:28.930Z,55.93
2018-08-31T23:25:00.396Z,56.00
2018-08-31T23:27:30.821Z,56.10
2018-08-31T23:30:00.287Z,56.65
2018-08-31T23:32:29.827Z,56.57
2018-08-31T23:34:59.093Z,56.63
2018-08-31T23:37:28.363Z,57.38
2018-08-31T23:39:57.776Z,57.24
2018-08-31T23:42:27.289Z,57.31
2018-08-31T23:44:56.735Z,57.23
2018-08-31T23:47:26.138Z,56.27
2018-08-31T23:49:55.590Z,56.43
2018-08-31T23:52:25.003Z,57.25
2018-08-31T23:54:54.444Z,57.54
2018-08-31T23:57:23.846Z,57.66
2018-08-31T23:59:53.303Z,57.80
